Portada
METAR-TAF:

METAR-TAF

Aeroports :

Lake Tahoe Airport

South Lake Tahoe, Califòrnia, Estats Units d'Amèrica

latitud: 38-53-38N, longitud: 119-59-43W, altitud: 1909 m

Observació

L'informe es va fer fa 38 minuts, a les 15:53 UTC
Vent calma
Temperatura -4°C
Humitat 74%
Pressió 1032 hPa
Visibilitat: 16.1 km
Cel clar

METAR: KTVL 261553Z AUTO 00000KT 10SM CLR M04/M08 A3047 RMK AO2 SLP333 T10441078

Hora: 08:31 (16:31 UTC)

Pronòstic

L'informe es va fer fa 4 hores i 56 minuts, a les 11:35 UTC
Pronòstic vàlid del 26 a les 12 UTC al 27 a les 12 UTC
Vent 3 kt del Sud
Visibilitat: 10 km
Escasses núvols a una alçada de 15000 ft
Cel ennuvolat a una alçada de 25000 ft
A partir de les 26 a les 2100 UTC
Vent 8 kt del Sud
Visibilitat: 10 km
Escasses núvols a una alçada de 18000 ft

TAF: KTVL 261135Z 2612/2712 19003KT P6SM FEW150 BKN250 FM262100 19008KT P6SM FEW180

Observacions i pronòstics meteorològics de més de 4000 aeroports (METAR i TAF).

Les estacions disponibles són els punts grocs i vermells al mapa.

Posi el ratolí al punt desitjat per veure el nom de l'estació.

Feu clic per veure les observacions i els pronòstics meteorològics.

Per canviar el mapa: feu clic els botons verds amb una creu de color negre per apropar; al botó verd amb un guió per allunyar la imatge; o en les fletxes verdes per a mapes adjacents.


METAR-TAF: